sensor_id;sensor_type;location;lat;lon;timestamp;temperature;humidity
38568;DHT22;24338;48.280;10.970;2023-03-30T00:00:55;11.10;99.90
38568;DHT22;24338;48.280;10.970;2023-03-30T00:03:22;11.00;99.90
38568;DHT22;24338;48.280;10.970;2023-03-30T00:05:50;11.10;99.90
38568;DHT22;24338;48.280;10.970;2023-03-30T00:08:17;11.10;99.90
38568;DHT22;24338;48.280;10.970;2023-03-30T00:10:45;11.00;99.90
38568;DHT22;24338;48.280;10.970;2023-03-30T00:13:12;11.10;99.90
38568;DHT22;24338;48.280;10.970;2023-03-30T00:15:40;11.10;99.90
38568;DHT22;24338;48.280;10.970;2023-03-30T00:18:07;11.10;99.90
38568;DHT22;24338;48.280;10.970;2023-03-30T00:20:34;11.10;99.90
38568;DHT22;24338;48.280;10.970;2023-03-30T00:23:03;11.10;99.90
38568;DHT22;24338;48.280;10.970;2023-03-30T00:25:30;11.00;99.90
38568;DHT22;24338;48.280;10.970;2023-03-30T00:27:57;11.00;99.90
38568;DHT22;24338;48.280;10.970;2023-03-30T00:30:24;11.00;99.90
38568;DHT22;24338;48.280;10.970;2023-03-30T00:32:51;11.00;99.90
38568;DHT22;24338;48.280;10.970;2023-03-30T00:35:19;11.00;99.90
38568;DHT22;24338;48.280;10.970;2023-03-30T00:37:46;10.90;99.90
38568;DHT22;24338;48.280;10.970;2023-03-30T00:40:18;10.90;99.90
38568;DHT22;24338;48.280;10.970;2023-03-30T00:42:46;10.90;99.90
38568;DHT22;24338;48.280;10.970;2023-03-30T00:45:33;10.90;99.90
38568;DHT22;24338;48.280;10.970;2023-03-30T00:48:11;10.90;99.90
38568;DHT22;24338;48.280;10.970;2023-03-30T00:50:55;10.80;99.90
38568;DHT22;24338;48.280;10.970;2023-03-30T00:53:27;10.70;99.90
38568;DHT22;24338;48.280;10.970;2023-03-30T00:55:56;10.80;99.90
38568;DHT22;24338;48.280;10.970;2023-03-30T00:58:24;10.80;99.90
38568;DHT22;24338;48.280;10.970;2023-03-30T01:00:52;10.80;99.90
38568;DHT22;24338;48.280;10.970;2023-03-30T01:03:26;10.80;99.90
38568;DHT22;24338;48.280;10.970;2023-03-30T01:05:54;10.80;99.90
38568;DHT22;24338;48.280;10.970;2023-03-30T01:08:24;10.80;99.90
38568;DHT22;24338;48.280;10.970;2023-03-30T01:10:52;10.80;99.90
38568;DHT22;24338;48.280;10.970;2023-03-30T01:13:21;10.90;99.90
38568;DHT22;24338;48.280;10.970;2023-03-30T01:41:36;11.10;99.90
38568;DHT22;24338;48.280;10.970;2023-03-30T01:46:50;11.20;99.90
38568;DHT22;24338;48.280;10.970;2023-03-30T01:49:29;11.20;99.90
38568;DHT22;24338;48.280;10.970;2023-03-30T01:52:14;11.40;99.90
38568;DHT22;24338;48.280;10.970;2023-03-30T01:54:59;11.50;99.90
38568;DHT22;24338;48.280;10.970;2023-03-30T01:57:44;11.60;99.90
38568;DHT22;24338;48.280;10.970;2023-03-30T02:00:17;11.80;99.90
38568;DHT22;24338;48.280;10.970;2023-03-30T02:02:53;11.90;99.90
38568;DHT22;24338;48.280;10.970;2023-03-30T02:05:22;12.10;99.90
38568;DHT22;24338;48.280;10.970;2023-03-30T02:07:57;12.10;99.90
38568;DHT22;24338;48.280;10.970;2023-03-30T02:10:29;12.10;99.90
38568;DHT22;24338;48.280;10.970;2023-03-30T02:12:58;12.00;99.90
38568;DHT22;24338;48.280;10.970;2023-03-30T02:15:30;12.00;99.90
38568;DHT22;24338;48.280;10.970;2023-03-30T02:17:59;11.90;99.90
38568;DHT22;24338;48.280;10.970;2023-03-30T02:20:26;11.90;99.90
38568;DHT22;24338;48.280;10.970;2023-03-30T02:22:54;11.80;99.90
38568;DHT22;24338;48.280;10.970;2023-03-30T02:25:23;11.80;99.90
38568;DHT22;24338;48.280;10.970;2023-03-30T02:27:50;11.80;99.90
38568;DHT22;24338;48.280;10.970;2023-03-30T02:30:18;11.70;99.90
38568;DHT22;24338;48.280;10.970;2023-03-30T02:32:48;11.70;99.90
38568;DHT22;24338;48.280;10.970;2023-03-30T02:40:36;11.70;99.90
38568;DHT22;24338;48.280;10.970;2023-03-30T02:51:51;11.50;99.90
38568;DHT22;24338;48.280;10.970;2023-03-30T02:57:08;11.30;99.90
38568;DHT22;24338;48.280;10.970;2023-03-30T02:59:45;11.20;99.90
38568;DHT22;24338;48.280;10.970;2023-03-30T03:02:39;11.20;99.90
38568;DHT22;24338;48.280;10.970;2023-03-30T03:05:07;11.10;99.90
38568;DHT22;24338;48.280;10.970;2023-03-30T03:07:37;11.10;99.90
38568;DHT22;24338;48.280;10.970;2023-03-30T03:10:05;11.00;99.90
38568;DHT22;24338;48.280;10.970;2023-03-30T03:12:33;11.00;99.90
38568;DHT22;24338;48.280;10.970;2023-03-30T03:15:00;10.90;99.90
38568;DHT22;24338;48.280;10.970;2023-03-30T03:17:27;10.90;99.90
38568;DHT22;24338;48.280;10.970;2023-03-30T03:20:04;10.80;99.90
38568;DHT22;24338;48.280;10.970;2023-03-30T03:22:31;10.70;99.90
38568;DHT22;24338;48.280;10.970;2023-03-30T03:24:58;10.60;99.90
38568;DHT22;24338;48.280;10.970;2023-03-30T03:27:25;10.60;99.90
38568;DHT22;24338;48.280;10.970;2023-03-30T03:29:52;10.50;99.90
38568;DHT22;24338;48.280;10.970;2023-03-30T03:32:19;10.50;99.90
38568;DHT22;24338;48.280;10.970;2023-03-30T03:34:46;10.50;99.90
38568;DHT22;24338;48.280;10.970;2023-03-30T03:37:14;10.60;99.90
38568;DHT22;24338;48.280;10.970;2023-03-30T03:39:40;10.50;99.90
38568;DHT22;24338;48.280;10.970;2023-03-30T03:42:07;10.50;99.90
38568;DHT22;24338;48.280;10.970;2023-03-30T03:44:34;10.40;99.90
38568;DHT22;24338;48.280;10.970;2023-03-30T03:47:03;10.30;99.90
38568;DHT22;24338;48.280;10.970;2023-03-30T03:49:30;10.40;99.90
38568;DHT22;24338;48.280;10.970;2023-03-30T03:51:57;10.50;99.90
38568;DHT22;24338;48.280;10.970;2023-03-30T03:54:24;10.50;99.90
38568;DHT22;24338;48.280;10.970;2023-03-30T03:56:51;10.50;99.90
38568;DHT22;24338;48.280;10.970;2023-03-30T03:59:18;10.50;99.90
38568;DHT22;24338;48.280;10.970;2023-03-30T04:01:45;10.50;99.90
38568;DHT22;24338;48.280;10.970;2023-03-30T04:04:12;10.60;99.90
38568;DHT22;24338;48.280;10.970;2023-03-30T04:06:42;10.60;99.90
38568;DHT22;24338;48.280;10.970;2023-03-30T04:09:08;10.60;99.90
38568;DHT22;24338;48.280;10.970;2023-03-30T04:11:35;10.60;99.90
38568;DHT22;24338;48.280;10.970;2023-03-30T04:14:02;10.60;99.90
38568;DHT22;24338;48.280;10.970;2023-03-30T04:16:29;10.60;99.90
38568;DHT22;24338;48.280;10.970;2023-03-30T04:18:58;10.60;99.90
38568;DHT22;24338;48.280;10.970;2023-03-30T04:21:25;10.50;99.90
38568;DHT22;24338;48.280;10.970;2023-03-30T04:23:55;10.50;99.90
38568;DHT22;24338;48.280;10.970;2023-03-30T04:26:22;10.50;99.90
38568;DHT22;24338;48.280;10.970;2023-03-30T04:28:49;10.50;99.90
38568;DHT22;24338;48.280;10.970;2023-03-30T04:31:19;10.50;99.90
38568;DHT22;24338;48.280;10.970;2023-03-30T04:33:48;10.50;99.90
38568;DHT22;24338;48.280;10.970;2023-03-30T04:36:19;10.50;99.90
38568;DHT22;24338;48.280;10.970;2023-03-30T04:38:47;10.50;99.90
38568;DHT22;24338;48.280;10.970;2023-03-30T04:41:28;10.50;99.90
38568;DHT22;24338;48.280;10.970;2023-03-30T04:44:02;10.40;99.90
38568;DHT22;24338;48.280;10.970;2023-03-30T04:46:29;10.40;99.90
38568;DHT22;24338;48.280;10.970;2023-03-30T04:48:57;10.40;99.90
38568;DHT22;24338;48.280;10.970;2023-03-30T04:51:23;10.30;99.90
38568;DHT22;24338;48.280;10.970;2023-03-30T04:53:54;10.30;99.90
38568;DHT22;24338;48.280;10.970;2023-03-30T04:56:21;10.30;99.90
38568;DHT22;24338;48.280;10.970;2023-03-30T04:58:48;10.20;99.90
38568;DHT22;24338;48.280;10.970;2023-03-30T05:01:15;10.20;99.90
38568;DHT22;24338;48.280;10.970;2023-03-30T05:03:41;10.20;99.90
38568;DHT22;24338;48.280;10.970;2023-03-30T05:06:08;10.20;99.90
38568;DHT22;24338;48.280;10.970;2023-03-30T05:08:36;10.20;99.90
38568;DHT22;24338;48.280;10.970;2023-03-30T05:11:07;10.20;99.90
38568;DHT22;24338;48.280;10.970;2023-03-30T05:13:34;10.10;99.90
38568;DHT22;24338;48.280;10.970;2023-03-30T05:16:01;10.10;99.90
38568;DHT22;24338;48.280;10.970;2023-03-30T05:18:28;10.10;99.90
38568;DHT22;24338;48.280;10.970;2023-03-30T05:20:56;10.10;99.90
38568;DHT22;24338;48.280;10.970;2023-03-30T05:23:24;10.10;99.90
38568;DHT22;24338;48.280;10.970;2023-03-30T05:25:51;10.10;99.90
38568;DHT22;24338;48.280;10.970;2023-03-30T05:28:18;10.10;99.90
38568;DHT22;24338;48.280;10.970;2023-03-30T05:30:45;10.10;99.90
38568;DHT22;24338;48.280;10.970;2023-03-30T05:33:12;10.10;99.90
38568;DHT22;24338;48.280;10.970;2023-03-30T05:35:39;10.10;99.90
38568;DHT22;24338;48.280;10.970;2023-03-30T05:38:06;10.10;99.90
38568;DHT22;24338;48.280;10.970;2023-03-30T05:40:33;10.10;99.90
38568;DHT22;24338;48.280;10.970;2023-03-30T05:43:01;10.10;99.90
38568;DHT22;24338;48.280;10.970;2023-03-30T05:45:28;10.10;99.90
38568;DHT22;24338;48.280;10.970;2023-03-30T05:47:55;10.10;99.90
38568;DHT22;24338;48.280;10.970;2023-03-30T05:50:21;10.20;99.90
38568;DHT22;24338;48.280;10.970;2023-03-30T05:52:48;10.20;99.90
38568;DHT22;24338;48.280;10.970;2023-03-30T05:55:15;10.20;99.90
38568;DHT22;24338;48.280;10.970;2023-03-30T05:57:42;10.20;99.90
38568;DHT22;24338;48.280;10.970;2023-03-30T06:00:10;10.20;99.90
38568;DHT22;24338;48.280;10.970;2023-03-30T06:02:39;10.30;99.90
38568;DHT22;24338;48.280;10.970;2023-03-30T06:05:06;10.30;99.90
38568;DHT22;24338;48.280;10.970;2023-03-30T06:07:34;10.40;99.90
38568;DHT22;24338;48.280;10.970;2023-03-30T06:10:00;10.40;99.90
38568;DHT22;24338;48.280;10.970;2023-03-30T06:12:27;10.40;99.90
38568;DHT22;24338;48.280;10.970;2023-03-30T06:14:54;10.40;99.90
38568;DHT22;24338;48.280;10.970;2023-03-30T06:17:21;10.50;99.90
38568;DHT22;24338;48.280;10.970;2023-03-30T06:19:48;10.50;99.90
38568;DHT22;24338;48.280;10.970;2023-03-30T06:22:15;10.50;99.90
38568;DHT22;24338;48.280;10.970;2023-03-30T06:24:41;10.50;99.90
38568;DHT22;24338;48.280;10.970;2023-03-30T06:27:08;10.50;99.90
38568;DHT22;24338;48.280;10.970;2023-03-30T06:29:35;10.60;99.90
38568;DHT22;24338;48.280;10.970;2023-03-30T06:32:02;10.50;99.90
38568;DHT22;24338;48.280;10.970;2023-03-30T06:34:29;10.60;99.90
38568;DHT22;24338;48.280;10.970;2023-03-30T06:36:56;10.60;99.90
38568;DHT22;24338;48.280;10.970;2023-03-30T06:39:23;10.60;99.90
38568;DHT22;24338;48.280;10.970;2023-03-30T06:41:51;10.60;99.90
38568;DHT22;24338;48.280;10.970;2023-03-30T06:44:17;10.70;99.90
38568;DHT22;24338;48.280;10.970;2023-03-30T06:46:45;10.70;99.90
38568;DHT22;24338;48.280;10.970;2023-03-30T06:49:12;10.70;99.90
38568;DHT22;24338;48.280;10.970;2023-03-30T06:51:39;10.70;99.90
38568;DHT22;24338;48.280;10.970;2023-03-30T06:54:07;10.80;99.90
38568;DHT22;24338;48.280;10.970;2023-03-30T06:56:34;10.90;99.90
38568;DHT22;24338;48.280;10.970;2023-03-30T06:59:01;11.00;99.90
38568;DHT22;24338;48.280;10.970;2023-03-30T07:01:28;11.00;99.90
38568;DHT22;24338;48.280;10.970;2023-03-30T07:03:55;11.10;99.90
38568;DHT22;24338;48.280;10.970;2023-03-30T07:06:22;11.10;99.90
38568;DHT22;24338;48.280;10.970;2023-03-30T07:08:49;11.20;99.90
38568;DHT22;24338;48.280;10.970;2023-03-30T07:11:20;11.20;99.90
38568;DHT22;24338;48.280;10.970;2023-03-30T07:13:48;11.20;99.90
38568;DHT22;24338;48.280;10.970;2023-03-30T07:16:15;11.10;99.90
38568;DHT22;24338;48.280;10.970;2023-03-30T07:18:41;11.10;99.90
38568;DHT22;24338;48.280;10.970;2023-03-30T07:21:08;11.10;99.90
38568;DHT22;24338;48.280;10.970;2023-03-30T07:23:36;11.10;99.90
38568;DHT22;24338;48.280;10.970;2023-03-30T07:26:03;11.10;99.90
38568;DHT22;24338;48.280;10.970;2023-03-30T07:28:30;11.10;99.90
38568;DHT22;24338;48.280;10.970;2023-03-30T07:31:07;11.10;99.90
38568;DHT22;24338;48.280;10.970;2023-03-30T07:33:34;11.10;99.90
38568;DHT22;24338;48.280;10.970;2023-03-30T07:36:03;11.20;99.90
38568;DHT22;24338;48.280;10.970;2023-03-30T07:38:29;11.20;99.90
38568;DHT22;24338;48.280;10.970;2023-03-30T07:40:57;11.20;99.90
38568;DHT22;24338;48.280;10.970;2023-03-30T07:43:23;11.30;99.90
38568;DHT22;24338;48.280;10.970;2023-03-30T07:45:50;11.30;99.90
38568;DHT22;24338;48.280;10.970;2023-03-30T07:48:17;11.40;99.90
38568;DHT22;24338;48.280;10.970;2023-03-30T07:50:44;11.30;99.90
38568;DHT22;24338;48.280;10.970;2023-03-30T07:53:11;11.40;99.90
38568;DHT22;24338;48.280;10.970;2023-03-30T07:55:38;11.40;99.90
38568;DHT22;24338;48.280;10.970;2023-03-30T07:58:05;11.40;99.90
38568;DHT22;24338;48.280;10.970;2023-03-30T08:00:33;11.40;99.90
38568;DHT22;24338;48.280;10.970;2023-03-30T08:03:00;11.50;99.90
38568;DHT22;24338;48.280;10.970;2023-03-30T08:05:27;11.60;99.90
38568;DHT22;24338;48.280;10.970;2023-03-30T08:07:54;11.70;99.90
38568;DHT22;24338;48.280;10.970;2023-03-30T08:10:21;11.80;99.90
38568;DHT22;24338;48.280;10.970;2023-03-30T08:12:50;11.80;99.90
38568;DHT22;24338;48.280;10.970;2023-03-30T08:15:17;11.80;99.90
38568;DHT22;24338;48.280;10.970;2023-03-30T08:17:44;11.80;99.90
38568;DHT22;24338;48.280;10.970;2023-03-30T08:20:11;11.80;99.90
38568;DHT22;24338;48.280;10.970;2023-03-30T08:22:38;11.80;99.90
38568;DHT22;24338;48.280;10.970;2023-03-30T08:25:05;11.80;99.90
38568;DHT22;24338;48.280;10.970;2023-03-30T08:27:32;11.70;99.90
38568;DHT22;24338;48.280;10.970;2023-03-30T08:29:59;11.70;99.90
38568;DHT22;24338;48.280;10.970;2023-03-30T08:32:26;11.80;99.90
38568;DHT22;24338;48.280;10.970;2023-03-30T08:34:53;11.90;99.90
38568;DHT22;24338;48.280;10.970;2023-03-30T08:37:20;11.90;99.90
38568;DHT22;24338;48.280;10.970;2023-03-30T08:39:47;12.00;99.90
38568;DHT22;24338;48.280;10.970;2023-03-30T08:45:09;12.10;99.90
38568;DHT22;24338;48.280;10.970;2023-03-30T08:47:40;12.20;99.90
38568;DHT22;24338;48.280;10.970;2023-03-30T08:50:17;12.30;99.90
38568;DHT22;24338;48.280;10.970;2023-03-30T08:52:50;12.40;99.90
38568;DHT22;24338;48.280;10.970;2023-03-30T08:55:26;12.40;99.90
38568;DHT22;24338;48.280;10.970;2023-03-30T08:58:01;12.50;99.90
38568;DHT22;24338;48.280;10.970;2023-03-30T09:00:37;12.60;99.90
38568;DHT22;24338;48.280;10.970;2023-03-30T09:05:54;13.00;99.90
38568;DHT22;24338;48.280;10.970;2023-03-30T09:08:24;13.10;99.90
38568;DHT22;24338;48.280;10.970;2023-03-30T09:10:59;13.10;99.90
38568;DHT22;24338;48.280;10.970;2023-03-30T09:13:36;13.10;99.90
38568;DHT22;24338;48.280;10.970;2023-03-30T09:16:21;13.10;99.90
38568;DHT22;24338;48.280;10.970;2023-03-30T09:18:57;13.10;99.90
38568;DHT22;24338;48.280;10.970;2023-03-30T09:21:30;13.30;99.90
38568;DHT22;24338;48.280;10.970;2023-03-30T09:23:59;13.50;99.90
38568;DHT22;24338;48.280;10.970;2023-03-30T09:26:53;13.60;99.90
38568;DHT22;24338;48.280;10.970;2023-03-30T09:29:39;13.80;99.90
38568;DHT22;24338;48.280;10.970;2023-03-30T09:32:32;14.00;99.90
38568;DHT22;24338;48.280;10.970;2023-03-30T09:35:04;14.10;99.90
38568;DHT22;24338;48.280;10.970;2023-03-30T09:37:38;14.00;99.90
38568;DHT22;24338;48.280;10.970;2023-03-30T09:40:43;13.90;99.90
38568;DHT22;24338;48.280;10.970;2023-03-30T09:46:05;13.90;99.90
38568;DHT22;24338;48.280;10.970;2023-03-30T09:51:16;13.90;99.90
38568;DHT22;24338;48.280;10.970;2023-03-30T09:53:44;14.10;99.90
38568;DHT22;24338;48.280;10.970;2023-03-30T10:01:47;13.60;99.90
38568;DHT22;24338;48.280;10.970;2023-03-30T10:04:13;13.50;99.90
38568;DHT22;24338;48.280;10.970;2023-03-30T10:06:46;13.50;99.90
38568;DHT22;24338;48.280;10.970;2023-03-30T10:09:15;13.50;99.90
38568;DHT22;24338;48.280;10.970;2023-03-30T10:11:48;13.60;99.90
38568;DHT22;24338;48.280;10.970;2023-03-30T10:16:55;13.60;99.90
38568;DHT22;24338;48.280;10.970;2023-03-30T10:19:22;13.60;99.90
38568;DHT22;24338;48.280;10.970;2023-03-30T10:21:56;13.60;99.90
38568;DHT22;24338;48.280;10.970;2023-03-30T10:24:31;13.70;99.90
38568;DHT22;24338;48.280;10.970;2023-03-30T10:27:08;13.70;99.90
38568;DHT22;24338;48.280;10.970;2023-03-30T10:29:36;13.80;99.90
38568;DHT22;24338;48.280;10.970;2023-03-30T10:32:23;13.80;99.90
38568;DHT22;24338;48.280;10.970;2023-03-30T10:34:58;13.80;99.90
38568;DHT22;24338;48.280;10.970;2023-03-30T10:37:29;13.60;99.90
38568;DHT22;24338;48.280;10.970;2023-03-30T10:39:58;13.60;99.90
38568;DHT22;24338;48.280;10.970;2023-03-30T10:42:30;13.40;99.90
38568;DHT22;24338;48.280;10.970;2023-03-30T10:44:59;13.20;99.90
38568;DHT22;24338;48.280;10.970;2023-03-30T10:53:12;12.90;99.90
38568;DHT22;24338;48.280;10.970;2023-03-30T10:55:51;12.80;99.90
38568;DHT22;24338;48.280;10.970;2023-03-30T10:58:34;12.80;99.90
38568;DHT22;24338;48.280;10.970;2023-03-30T11:03:56;12.60;99.90
38568;DHT22;24338;48.280;10.970;2023-03-30T11:06:39;12.60;99.90
38568;DHT22;24338;48.280;10.970;2023-03-30T11:09:09;12.50;99.90
38568;DHT22;24338;48.280;10.970;2023-03-30T11:11:48;12.50;99.90
38568;DHT22;24338;48.280;10.970;2023-03-30T11:14:31;12.40;99.90
38568;DHT22;24338;48.280;10.970;2023-03-30T11:17:03;12.30;99.90
38568;DHT22;24338;48.280;10.970;2023-03-30T11:19:39;12.20;99.90
38568;DHT22;24338;48.280;10.970;2023-03-30T11:22:34;12.00;99.90
38568;DHT22;24338;48.280;10.970;2023-03-30T11:25:19;11.80;99.90
38568;DHT22;24338;48.280;10.970;2023-03-30T11:27:58;11.70;99.90
38568;DHT22;24338;48.280;10.970;2023-03-30T11:30:28;11.50;99.90
38568;DHT22;24338;48.280;10.970;2023-03-30T11:33:24;11.40;99.90
38568;DHT22;24338;48.280;10.970;2023-03-30T11:35:57;11.40;99.90
38568;DHT22;24338;48.280;10.970;2023-03-30T11:38:32;11.30;99.90
38568;DHT22;24338;48.280;10.970;2023-03-30T11:41:15;11.30;99.90
38568;DHT22;24338;48.280;10.970;2023-03-30T11:43:43;11.20;99.90
38568;DHT22;24338;48.280;10.970;2023-03-30T11:52:04;10.90;99.90
38568;DHT22;24338;48.280;10.970;2023-03-30T11:57:36;10.80;99.90
38568;DHT22;24338;48.280;10.970;2023-03-30T12:00:16;10.60;99.90
38568;DHT22;24338;48.280;10.970;2023-03-30T12:05:45;10.50;99.90
38568;DHT22;24338;48.280;10.970;2023-03-30T12:11:00;10.60;99.90
38568;DHT22;24338;48.280;10.970;2023-03-30T12:13:29;10.60;99.90
38568;DHT22;24338;48.280;10.970;2023-03-30T12:16:21;10.80;99.90
38568;DHT22;24338;48.280;10.970;2023-03-30T12:19:10;10.90;99.90
38568;DHT22;24338;48.280;10.970;2023-03-30T12:21:58;10.90;99.90
38568;DHT22;24338;48.280;10.970;2023-03-30T12:27:03;10.90;99.90
38568;DHT22;24338;48.280;10.970;2023-03-30T12:29:51;11.00;99.90
38568;DHT22;24338;48.280;10.970;2023-03-30T12:32:28;11.00;99.90
38568;DHT22;24338;48.280;10.970;2023-03-30T12:34:58;11.00;99.90
38568;DHT22;24338;48.280;10.970;2023-03-30T12:37:32;11.00;99.90
38568;DHT22;24338;48.280;10.970;2023-03-30T12:40:06;11.00;99.90
38568;DHT22;24338;48.280;10.970;2023-03-30T12:42:39;11.10;99.90
38568;DHT22;24338;48.280;10.970;2023-03-30T12:50:41;11.10;99.90
38568;DHT22;24338;48.280;10.970;2023-03-30T13:04:16;10.90;99.90
38568;DHT22;24338;48.280;10.970;2023-03-30T13:06:58;10.90;99.90
38568;DHT22;24338;48.280;10.970;2023-03-30T13:09:31;10.90;99.90
38568;DHT22;24338;48.280;10.970;2023-03-30T13:22:18;10.90;99.90
38568;DHT22;24338;48.280;10.970;2023-03-30T13:24:54;10.90;99.90
38568;DHT22;24338;48.280;10.970;2023-03-30T13:27:35;11.00;99.90
38568;DHT22;24338;48.280;10.970;2023-03-30T13:35:53;11.10;99.90
38568;DHT22;24338;48.280;10.970;2023-03-30T13:46:53;11.40;99.90
38568;DHT22;24338;48.280;10.970;2023-03-30T13:52:14;11.40;99.90
38568;DHT22;24338;48.280;10.970;2023-03-30T13:54:42;11.40;99.90
38568;DHT22;24338;48.280;10.970;2023-03-30T13:57:22;11.40;99.90
38568;DHT22;24338;48.280;10.970;2023-03-30T13:59:56;11.40;99.90
38568;DHT22;24338;48.280;10.970;2023-03-30T14:02:28;11.50;99.90
38568;DHT22;24338;48.280;10.970;2023-03-30T14:05:11;11.50;99.90
38568;DHT22;24338;48.280;10.970;2023-03-30T14:07:41;11.60;99.90
38568;DHT22;24338;48.280;10.970;2023-03-30T14:10:16;11.60;99.90
38568;DHT22;24338;48.280;10.970;2023-03-30T14:12:46;11.70;99.90
38568;DHT22;24338;48.280;10.970;2023-03-30T14:15:20;11.70;99.90
38568;DHT22;24338;48.280;10.970;2023-03-30T14:17:49;11.80;99.90
38568;DHT22;24338;48.280;10.970;2023-03-30T14:20:43;12.10;99.90
38568;DHT22;24338;48.280;10.970;2023-03-30T14:23:41;12.50;99.90
38568;DHT22;24338;48.280;10.970;2023-03-30T14:26:24;12.80;99.90
38568;DHT22;24338;48.280;10.970;2023-03-30T14:29:01;13.10;99.90
38568;DHT22;24338;48.280;10.970;2023-03-30T14:31:37;13.10;99.90
38568;DHT22;24338;48.280;10.970;2023-03-30T14:34:44;13.00;99.90
38568;DHT22;24338;48.280;10.970;2023-03-30T14:37:12;12.90;99.90
38568;DHT22;24338;48.280;10.970;2023-03-30T14:39:48;12.60;99.90
38568;DHT22;24338;48.280;10.970;2023-03-30T14:42:31;12.50;99.90
38568;DHT22;24338;48.280;10.970;2023-03-30T14:44:59;12.30;99.90
38568;DHT22;24338;48.280;10.970;2023-03-30T14:47:27;12.20;99.90
38568;DHT22;24338;48.280;10.970;2023-03-30T14:49:59;12.20;99.90
38568;DHT22;24338;48.280;10.970;2023-03-30T14:52:33;12.20;99.90
38568;DHT22;24338;48.280;10.970;2023-03-30T14:55:09;12.20;99.90
38568;DHT22;24338;48.280;10.970;2023-03-30T14:57:38;12.40;99.90
38568;DHT22;24338;48.280;10.970;2023-03-30T15:00:17;12.40;99.90
38568;DHT22;24338;48.280;10.970;2023-03-30T15:02:54;12.40;99.90
38568;DHT22;24338;48.280;10.970;2023-03-30T15:05:26;12.40;99.90
38568;DHT22;24338;48.280;10.970;2023-03-30T15:07:57;12.40;99.90
38568;DHT22;24338;48.280;10.970;2023-03-30T15:12:55;12.40;99.90
38568;DHT22;24338;48.280;10.970;2023-03-30T15:15:29;12.60;99.90
38568;DHT22;24338;48.280;10.970;2023-03-30T15:17:57;12.70;99.90
38568;DHT22;24338;48.280;10.970;2023-03-30T15:20:27;12.80;99.90
38568;DHT22;24338;48.280;10.970;2023-03-30T15:22:55;12.80;99.90
38568;DHT22;24338;48.280;10.970;2023-03-30T15:25:32;12.90;99.90
38568;DHT22;24338;48.280;10.970;2023-03-30T15:28:04;13.00;99.90
38568;DHT22;24338;48.280;10.970;2023-03-30T15:30:41;13.00;99.90
38568;DHT22;24338;48.280;10.970;2023-03-30T15:33:20;13.00;99.90
38568;DHT22;24338;48.280;10.970;2023-03-30T15:35:49;13.00;99.90
38568;DHT22;24338;48.280;10.970;2023-03-30T15:38:27;13.00;99.90
38568;DHT22;24338;48.280;10.970;2023-03-30T15:40:54;13.10;99.90
38568;DHT22;24338;48.280;10.970;2023-03-30T15:43:29;13.10;99.90
38568;DHT22;24338;48.280;10.970;2023-03-30T15:51:18;13.20;99.90
38568;DHT22;24338;48.280;10.970;2023-03-30T15:56:36;13.20;99.90
38568;DHT22;24338;48.280;10.970;2023-03-30T15:59:04;13.20;99.90
38568;DHT22;24338;48.280;10.970;2023-03-30T16:01:56;13.10;99.90
38568;DHT22;24338;48.280;10.970;2023-03-30T16:04:30;13.10;99.90
38568;DHT22;24338;48.280;10.970;2023-03-30T16:06:57;13.00;99.90
38568;DHT22;24338;48.280;10.970;2023-03-30T16:09:24;12.90;99.90
38568;DHT22;24338;48.280;10.970;2023-03-30T16:11:51;12.80;99.90
38568;DHT22;24338;48.280;10.970;2023-03-30T16:14:21;12.80;99.90
38568;DHT22;24338;48.280;10.970;2023-03-30T16:16:48;12.60;99.90
38568;DHT22;24338;48.280;10.970;2023-03-30T16:19:17;12.50;99.90
38568;DHT22;24338;48.280;10.970;2023-03-30T16:21:45;12.20;99.90
38568;DHT22;24338;48.280;10.970;2023-03-30T16:24:12;12.00;99.90
38568;DHT22;24338;48.280;10.970;2023-03-30T16:26:39;11.90;99.90
38568;DHT22;24338;48.280;10.970;2023-03-30T16:29:18;11.80;99.90
38568;DHT22;24338;48.280;10.970;2023-03-30T16:31:48;11.80;99.90
38568;DHT22;24338;48.280;10.970;2023-03-30T16:34:15;11.70;99.90
38568;DHT22;24338;48.280;10.970;2023-03-30T16:36:42;11.70;99.90
38568;DHT22;24338;48.280;10.970;2023-03-30T16:39:26;11.70;99.90
38568;DHT22;24338;48.280;10.970;2023-03-30T16:41:54;11.70;99.90
38568;DHT22;24338;48.280;10.970;2023-03-30T16:44:22;11.70;99.90
38568;DHT22;24338;48.280;10.970;2023-03-30T16:46:50;11.70;99.90
38568;DHT22;24338;48.280;10.970;2023-03-30T16:49:21;11.60;99.90
38568;DHT22;24338;48.280;10.970;2023-03-30T16:51:52;11.70;99.90
38568;DHT22;24338;48.280;10.970;2023-03-30T16:54:23;11.80;99.90
38568;DHT22;24338;48.280;10.970;2023-03-30T16:56:59;11.90;99.90
38568;DHT22;24338;48.280;10.970;2023-03-30T16:59:32;11.80;99.90
38568;DHT22;24338;48.280;10.970;2023-03-30T17:01:59;11.90;99.90
38568;DHT22;24338;48.280;10.970;2023-03-30T17:04:26;11.80;99.90
38568;DHT22;24338;48.280;10.970;2023-03-30T17:06:53;11.70;99.90
38568;DHT22;24338;48.280;10.970;2023-03-30T17:09:21;11.70;99.90
38568;DHT22;24338;48.280;10.970;2023-03-30T17:11:48;11.80;99.90
38568;DHT22;24338;48.280;10.970;2023-03-30T17:14:15;11.80;99.90
38568;DHT22;24338;48.280;10.970;2023-03-30T17:16:42;11.80;99.90
38568;DHT22;24338;48.280;10.970;2023-03-30T17:19:11;11.70;99.90
38568;DHT22;24338;48.280;10.970;2023-03-30T17:21:38;11.60;99.90
38568;DHT22;24338;48.280;10.970;2023-03-30T17:24:08;11.50;99.90
38568;DHT22;24338;48.280;10.970;2023-03-30T17:26:37;11.50;99.90
38568;DHT22;24338;48.280;10.970;2023-03-30T17:29:04;11.40;99.90
38568;DHT22;24338;48.280;10.970;2023-03-30T17:31:30;11.30;99.90
38568;DHT22;24338;48.280;10.970;2023-03-30T17:33:57;11.30;99.90
38568;DHT22;24338;48.280;10.970;2023-03-30T17:36:25;11.20;99.90
38568;DHT22;24338;48.280;10.970;2023-03-30T17:38:54;11.20;99.90
38568;DHT22;24338;48.280;10.970;2023-03-30T17:41:22;11.10;99.90
38568;DHT22;24338;48.280;10.970;2023-03-30T17:43:49;11.10;99.90
38568;DHT22;24338;48.280;10.970;2023-03-30T17:46:17;11.00;99.90
38568;DHT22;24338;48.280;10.970;2023-03-30T17:48:44;11.00;99.90
38568;DHT22;24338;48.280;10.970;2023-03-30T17:51:11;10.90;99.90
38568;DHT22;24338;48.280;10.970;2023-03-30T17:53:38;10.90;99.90
38568;DHT22;24338;48.280;10.970;2023-03-30T17:56:05;10.80;99.90
38568;DHT22;24338;48.280;10.970;2023-03-30T17:58:34;10.70;99.90
38568;DHT22;24338;48.280;10.970;2023-03-30T18:01:06;10.70;99.90
38568;DHT22;24338;48.280;10.970;2023-03-30T18:03:34;10.70;99.90